Tuesday, January 16, 2018, 11:53 AM GMT
Back to Local

CYZX, Greenwood, N. S.

Location: , , Canada Lat: 44.983
Local Time: 11:53 AM GMT (11:53 GMT) Lon: -64.917
Time Zone: GMT Elev: 91 ft

Show me the last for .
Show Decoded

2018-01-16 11:00 METAR CYZX 161100Z 05007KT 6SM -SHSN BKN014 OVC020 M05/M06 A3039 RMK SC5SC3 WNDY
                 HILL UNAVBL PCPN VRY LGT SLP292 =
2018-01-16 10:43 METAR CYZX 161043Z 05007KT 6SM -SHSN BKN014 OVC020 M05/M06 A3039 RMK SC5SC3 WNDY
                 HILL UNAVBL PCPN VRY LGT SLP294 =
2018-01-16 10:00 METAR CYZX 161000Z 04006KT 5SM -SHSN FEW012 BKN020 OVC040 M05/M07 A3038 RMK
                 SF2SC4SC2 /S03/ WNDY HILL UNAVBL SLP289 =
2018-01-16 09:00 METAR CYZX 160900Z 03009KT 5SM -SHSN FEW010 BKN020 OVC040 M05/M07 A3039 RMK
                 SF2SC4SC2 WNDY HILL UNAVBL SLP293 =
2018-01-16 08:00 METAR CYZX 160800Z 03009KT 3SM -SHSN SCT010 OVC020 M05/M07 A3040 RMK SC4SC4
                 /S02/ WNDY HILL UNAVBL SLP297 =
2018-01-16 07:00 METAR CYZX 160700Z 03011KT 3SM -SHSN BKN020 OVC040 M05/M07 A3040 RMK SC5SC3
                 /S01/ WNDY HILL UNAVBL SLP298 =
2018-01-16 06:00 METAR CYZX 160600Z CCA 04012KT 3SM -SHSN BKN024 OVC040 M05/M07 A3039 RMK SC5SC3
                 WNDY HILL UNAVBL SLP295 =
2018-01-16 05:00 METAR CYZX 160500Z 03005KT 3SM -SHSN SCT011 BKN020 OVC030 M06/M08 A3042 RMK
                 SF4SC1SC3 /S01/ WNDY HILL UNAVBL SLP305 =
2018-01-16 04:00 METAR CYZX 160400Z 05010G16KT 4SM -SHSN FEW014 BKN020 OVC060 M06/M08 A3045 RMK
                 SC1SC6SC2 WNDY HILL UNAVBL SLP312 =
2018-01-16 03:00 METAR CYZX 160300Z 05014KT 12SM -SHSN BKN020 OVC060 M06/M09 A3047 RMK SC6SC2
                 WNDY HILL UNAVBL PCPN VRY LGT SLP322 =
2018-01-16 02:00 METAR CYZX 160200Z 05019KT 15SM -SHSN OVC020 M06/M10 A3053 RMK SC8 WNDY HILL
                 UNAVBL PCPN VRY LGT SLP340 =
2018-01-16 01:00 METAR CYZX 160100Z 04012G19KT 15SM -SHSN OVC020 M06/M10 A3057 RMK SC8 WNDY HILL
                 UNAVBL PCPN VRY LGT SLP355 =
2018-01-16 00:00 METAR CYZX 160000Z 05013G21KT 15SM -SHSN BKN020 M06/M10 A3061 RMK SC7 WNDY HILL
                 UNAVBL PCPN VRY LGT SLP368 =
2018-01-15 23:00 METAR CYZX 152300Z 04016G22KT 15SM -SHSN BKN022 M06/M11 A3064 RMK SC7 WNDY HILL
                 UNAVBL PCPN VRY LGT SLP379 =
2018-01-15 22:00 METAR CYZX 152200Z 06016G24KT 15SM -SHSN BKN022 M06/M09 A3063 RMK SC7 WNDY HILL
                 UNAVBL PCPN VRY LGT SLP374 =
2018-01-15 21:00 METAR CYZX 152100Z 07019G24KT 15SM -SHSN BKN022 M06/M10 A3067 RMK SC7 WNDY HILL
                 UNAVBL PCPN VRY LGT SLP389 =
2018-01-15 20:00 METAR CYZX 152000Z 07017G26KT 15SM -SHSN BKN022 M05/M09 A3067 RMK SC7 WNDY HILL
                 UNAVBL PCPN VRY LGT SLP388 =
2018-01-15 19:00 METAR CYZX 151900Z 06015G24KT 15SM -SHSN BKN022 M05/M09 A3069 RMK SC7 WNDY HILL
                 UNAVBL PCPN VRY LGT SLP393 =
2018-01-15 18:00 METAR CYZX 151800Z 07020G25KT 15SM -SHSN BKN022 M05/M09 A3069 RMK SC7 WNDY HILL
                 UNAVBL PCPN VRY LGT SLP394 =
2018-01-15 17:00 METAR CYZX 151700Z 07017G22KT 15SM -SHSN BKN021 M05/M10 A3073 RMK SC7 WNDY HILL
                 UNAVBL PCPN VRY LGT SLP409 =
2018-01-15 16:00 METAR CYZX 151600Z 06022G27KT 15SM -SHSN BKN021 M05/M09 A3077 RMK SC7 WNDY HILL
                 UNAVBL PCPN VRY LGT SLP420 =
2018-01-15 15:00 METAR CYZX 151500Z 08014G22KT 15SM -SHSN BKN022 M06/M10 A3079 RMK SC7 WNDY HILL
                 UNAVBL PCPN VRY LGT SLP430 =
2018-01-15 14:00 METAR CYZX 151400Z 06017KT 15SM -SHSN BKN022 BKN250 M07/M10 A3080 RMK SC6CI1
                 WNDY HILL UNAVBL PCPN VRY LGT SLP431 =
2018-01-15 13:00 METAR CYZX 151300Z 06010KT 8SM -SHSN OVC018 M07/M10 A3079 RMK SC8 WNDY HILL
                 UNAVBL SLP429 =
2018-01-15 12:00 METAR CYZX 151200Z 06009KT 12SM -SHSN OVC019 M08/M10 A3080 RMK SC8 WNDY HILL
                 UNAVBL PCPN VRY LGT SLP432 =

Support USWX by starting your Amazon purchase here.